Startpagina
METAR-TAF:

METAR-TAF

Vliegvelden :

Rouen, Frankrijk

breedte: 49-23N, lengte: 001-11E, hoogte: 157 m

Actueel weer

Dit bericht is 29 minuten geleden gemaakt, om 20:00 UTC
Wind 6 kt uit het noordoosten
Temperatuur 17°C
Vochtigheid 52%
Druk 1019 hPa
Zicht 10 km of meer
geen wolken onder 1500 m en geen cumulonimbus

METAR: LFOP 312000Z AUTO 05006KT CAVOK 17/07 Q1019 NOSIG

Tijdstip: 22:29 (20:29 UTC)

Verwachting

Dit bericht is 3 uur en het 29 minuten geleden gemaakt, om 17:00 UTC
Verwachting geldig van 31 om 18 UTC tot 01 om 18 UTC
Wind 10 kt uit het oostnoordoosten
Zicht 10 km of meer
geen wolken onder 1500 m en geen cumulonimbus

TAF: LFOP 311700Z 3118/0118 06010KT CAVOK

Waarnemingen en weersverwachtingen van meer dan 4000 vliegvelden (METAR en TAF).

De beschikbare stations zijn de gele en rode punten op de kaart.

Ga met uw muis naar het station om de naam te zien.

Klik dan om waarnemingen en weersverwachtingen te zien.

kaart wijzigen: klik op de groene knoppen met een zwart kruis om in te zoomen, op de groene knop met een streepje om uit te zoomen of op de groene pijlen voor aangrenzende kaarten.


METAR-TAF: